Time;durP1;ratioP1;P1;durP2;ratioP2;P2;SDS_P1;SDS_P2;PMS_P1;PMS_P2;Temp;Humidity;BMP_temperature;BMP_pressure;BME280_temperature;BME280_humidity;BME280_pressure;Samples;Min_cycle;Max_cycle;Signal;HPM_P1;HPM_P2
2024/02/20 00:02:15;;;;;;;;;;;;;;;5.41;100.00;102252.66;5110448;28;19970;-80
2024/02/20 00:04:40;;;;;;;;;;;;;;;5.39;100.00;102262.63;5105897;28;19972;-80
2024/02/20 00:07:06;;;;;;;;;;;;;;;5.37;100.00;102253.88;5108007;28;19924;-80
2024/02/20 00:09:31;;;;;;;;;;;;;;;5.36;100.00;102255.72;5110881;28;20049;-80
2024/02/20 00:11:56;;;;;;;;;;;;;;;5.37;100.00;102259.22;5108940;28;20359;-80
2024/02/20 00:14:21;;;;;;;;;;;;;;;5.37;100.00;102256.56;5109864;28;20351;-80
2024/02/20 00:16:47;;;;;;;;;;;;;;;5.35;100.00;102255.84;5109479;28;20427;-80
2024/02/20 00:19:12;;;;;;;;;;;;;;;5.35;100.00;102264.72;5111188;28;20391;-80
2024/02/20 00:21:40;;;;;;;;;;;;;;;5.33;100.00;102258.66;5107695;28;20418;-80
2024/02/20 00:24:05;;;;;;;;;;;;;;;5.29;100.00;102258.06;5110350;28;19996;-80
2024/02/20 00:26:30;;;;;;;;;;;;;;;5.29;100.00;102266.06;5109154;28;19973;-80
2024/02/20 00:28:56;;;;;;;;;;;;;;;5.25;100.00;102256.63;5088513;28;20738;-80
2024/02/20 00:31:21;;;;;;;;;;;;;;;5.28;100.00;102259.03;5109281;28;20375;-80
2024/02/20 00:33:47;;;;;;;;;;;;;;;5.13;100.00;102263.81;5110396;28;19965;-80
2024/02/20 00:36:12;;;;;;;;;;;;;;;4.97;100.00;102261.53;5109056;28;20650;-80
2024/02/20 00:38:37;;;;;;;;;;;;;;;4.85;100.00;102263.38;5109570;28;20456;-80
2024/02/20 00:41:03;;;;;;;;;;;;;;;4.75;100.00;102266.94;5109251;28;20344;-80
2024/02/20 00:43:29;;;;;;;;;;;;;;;4.62;100.00;102261.72;5110079;28;19922;-80
2024/02/20 00:45:55;;;;;;;;;;;;;;;4.46;100.00;102256.75;5113757;28;20121;-80
2024/02/20 00:48:20;;;;;;;;;;;;;;;4.36;100.00;102262.81;5113508;28;20291;-80
2024/02/20 00:50:46;;;;;;;;;;;;;;;4.25;100.00;102258.34;5112883;28;19927;-80
2024/02/20 00:53:13;;;;;;;;;;;;;;;4.17;100.00;102268.75;5107697;28;20375;-81
2024/02/20 00:55:38;;;;;;;;;;;;;;;4.04;100.00;102263.53;5111900;28;19919;-80
2024/02/20 00:58:03;;;;;;;;;;;;;;;3.99;100.00;102260.38;5112233;28;20625;-79
2024/02/20 01:00:28;;;;;;;;;;;;;;;3.92;100.00;102270.66;5112368;28;20367;-81
2024/02/20 01:02:54;;;;;;;;;;;;;;;3.82;100.00;102263.47;5113651;28;19924;-80
2024/02/20 01:05:19;;;;;;;;;;;;;;;3.77;100.00;102262.00;5112763;28;20379;-80
2024/02/20 01:07:44;;;;;;;;;;;;;;;3.79;100.00;102270.75;5113122;28;19927;-80
2024/02/20 01:10:10;;;;;;;;;;;;;;;3.78;100.00;102274.38;5113351;28;19926;-80
2024/02/20 01:12:35;;;;;;;;;;;;;;;3.79;100.00;102270.75;5113499;28;19924;-79
2024/02/20 01:15:00;;;;;;;;;;;;;;;3.78;100.00;102274.38;5113081;28;19920;-79
2024/02/20 01:17:26;;;;;;;;;;;;;;;3.82;100.00;102269.66;5111454;28;19931;-80
2024/02/20 01:19:51;;;;;;;;;;;;;;;3.87;100.00;102277.31;5111687;28;19927;-80
2024/02/20 01:22:16;;;;;;;;;;;;;;;3.75;100.00;102277.25;5113374;28;19920;-79
2024/02/20 01:24:41;;;;;;;;;;;;;;;3.78;100.00;102269.03;5111592;28;19927;-79
2024/02/20 01:27:06;;;;;;;;;;;;;;;3.83;100.00;102268.69;5112089;28;19950;-79
2024/02/20 01:29:32;;;;;;;;;;;;;;;3.87;100.00;102277.31;5105270;28;20355;-79
2024/02/20 01:31:57;;;;;;;;;;;;;;;3.90;100.00;102272.59;5121820;28;20422;-79
2024/02/20 01:34:22;;;;;;;;;;;;;;;3.82;100.00;102277.63;5112494;28;20453;-81
2024/02/20 01:36:48;;;;;;;;;;;;;;;3.67;100.00;102279.66;5112671;28;20290;-81
2024/02/20 01:39:13;;;;;;;;;;;;;;;3.58;100.00;102267.03;5112820;28;19962;-80
2024/02/20 01:41:38;;;;;;;;;;;;;;;3.59;100.00;102274.06;5112394;28;19970;-81
2024/02/20 01:44:03;;;;;;;;;;;;;;;3.59;100.00;102274.94;5112606;28;20442;-79
2024/02/20 01:46:29;;;;;;;;;;;;;;;3.54;100.00;102270.88;5113426;28;20299;-80
2024/02/20 01:48:57;;;;;;;;;;;;;;;3.53;100.00;102277.22;5111354;28;19919;-80
2024/02/20 01:51:23;;;;;;;;;;;;;;;3.51;100.00;102281.78;5112054;28;20425;-79
2024/02/20 01:53:48;;;;;;;;;;;;;;;3.46;100.00;102277.66;5094329;28;19927;-80
2024/02/20 01:56:13;;;;;;;;;;;;;;;3.41;100.00;102269.16;5092928;28;20014;-80
2024/02/20 01:58:39;;;;;;;;;;;;;;;3.40;100.00;102264.78;5112607;28;19955;-80
2024/02/20 02:01:04;;;;;;;;;;;;;;;3.39;100.00;102268.41;5114249;22;20302;-79
2024/02/20 02:03:30;;;;;;;;;;;;;;;3.37;100.00;102270.34;5087072;28;19924;-80
2024/02/20 02:05:58;;;;;;;;;;;;;;;3.37;100.00;102275.66;5073025;28;19920;-80
2024/02/20 02:08:23;;;;;;;;;;;;;;;3.36;100.00;102273.97;5092403;28;20022;-80
2024/02/20 02:10:51;;;;;;;;;;;;;;;3.30;100.00;102280.59;5091924;28;20415;-80
2024/02/20 02:13:17;;;;;;;;;;;;;;;3.27;100.00;102285.31;5091547;28;19962;-80
2024/02/20 02:15:42;;;;;;;;;;;;;;;3.33;100.00;102283.03;5092368;28;19924;-80
2024/02/20 02:18:07;;;;;;;;;;;;;;;3.30;100.00;102285.09;5090349;28;20038;-80
2024/02/20 02:20:32;;;;;;;;;;;;;;;3.29;100.00;102281.56;5091327;28;19927;-80
2024/02/20 02:23:03;;;;;;;;;;;;;;;3.26;100.00;102278.28;5092257;28;19950;-80
2024/02/20 02:25:28;;;;;;;;;;;;;;;3.23;100.00;102278.50;5090198;28;20335;-79
2024/02/20 02:27:53;;;;;;;;;;;;;;;3.18;100.00;102276.19;5091500;28;19955;-80
2024/02/20 02:30:19;;;;;;;;;;;;;;;3.24;100.00;102280.22;5092019;28;19924;-80
2024/02/20 02:32:44;;;;;;;;;;;;;;;3.25;100.00;102281.91;5090652;28;19928;-80
2024/02/20 02:35:10;;;;;;;;;;;;;;;3.26;100.00;102275.63;5091157;28;19931;-80
2024/02/20 02:37:35;;;;;;;;;;;;;;;3.31;100.00;102279.63;5091193;28;20210;-80
2024/02/20 02:40:01;;;;;;;;;;;;;;;3.28;100.00;102276.38;5090391;28;19916;-80
2024/02/20 02:42:26;;;;;;;;;;;;;;;3.27;100.00;102270.16;5090360;28;19959;-80
2024/02/20 02:44:51;;;;;;;;;;;;;;;3.28;100.00;102287.00;5091083;28;19947;-80
2024/02/20 02:47:16;;;;;;;;;;;;;;;3.28;100.00;102289.66;5090142;28;19920;-80
2024/02/20 02:49:41;;;;;;;;;;;;;;;3.26;100.00;102289.78;5090974;28;19920;-80
2024/02/20 02:52:07;;;;;;;;;;;;;;;3.29;100.00;102288.72;5089926;28;19992;-80
2024/02/20 02:54:32;;;;;;;;;;;;;;;3.33;100.00;102296.34;5091230;28;19923;-80
2024/02/20 02:57:00;;;;;;;;;;;;;;;3.34;100.00;102297.22;5089192;28;19977;-80
2024/02/20 03:01:50;;;;;;;;;;;;;;;3.27;100.00;102283.47;5097810;22;19924;-80
2024/02/20 03:04:15;;;;;;;;;;;;;;;3.29;100.00;102292.19;5090506;28;19931;-80
2024/02/20 03:06:40;;;;;;;;;;;;;;;3.32;100.00;102293.81;5089198;28;19931;-80
2024/02/20 03:09:12;;;;;;;;;;;;;;;3.31;100.00;102292.09;5091224;28;19931;-80
2024/02/20 03:11:37;;;;;;;;;;;;;;;3.29;100.00;102288.72;5089523;28;19920;-80
2024/02/20 03:14:03;;;;;;;;;;;;;;;3.28;100.00;102289.66;5091003;28;20307;-80
2024/02/20 03:16:28;;;;;;;;;;;;;;;3.27;100.00;102293.28;5091093;28;19935;-78
2024/02/20 03:18:56;;;;;;;;;;;;;;;3.28;100.00;102289.66;5084417;28;19928;-81
2024/02/20 03:21:22;;;;;;;;;;;;;;;3.24;100.00;102291.72;5090154;28;19928;-82
2024/02/20 03:23:47;;;;;;;;;;;;;;;3.22;100.00;102290.09;5090144;28;20236;-81
2024/02/20 03:26:12;;;;;;;;;;;;;;;3.28;100.00;102293.16;5089915;28;20328;-81
2024/02/20 03:28:38;;;;;;;;;;;;;;;3.27;100.00;102290.63;5087971;28;20311;-82
2024/02/20 03:31:04;;;;;;;;;;;;;;;3.24;100.00;102297.03;5072652;28;19958;-82
2024/02/20 03:33:33;;;;;;;;;;;;;;;3.25;100.00;102303.19;5090457;28;19952;-82
2024/02/20 03:35:58;;;;;;;;;;;;;;;3.23;100.00;102302.44;5089174;28;19978;-81
2024/02/20 03:38:24;;;;;;;;;;;;;;;3.24;100.00;102301.50;5093986;28;19920;-81
2024/02/20 03:40:49;;;;;;;;;;;;;;;3.25;100.00;102295.22;5092052;28;19963;-81
2024/02/20 03:43:15;;;;;;;;;;;;;;;3.25;100.00;102309.38;5091020;28;19951;-81
2024/02/20 03:45:40;;;;;;;;;;;;;;;3.23;100.00;102305.97;5090243;28;20014;-81
2024/02/20 03:48:05;;;;;;;;;;;;;;;3.24;100.00;102306.81;5089875;28;19924;-81
2024/02/20 03:50:32;;;;;;;;;;;;;;;3.22;100.00;102306.06;5089731;28;19920;-81
2024/02/20 03:52:58;;;;;;;;;;;;;;;3.21;100.00;102307.03;5091238;28;19931;-81
2024/02/20 03:55:23;;;;;;;;;;;;;;;3.21;100.00;102301.72;5088463;28;19920;-81
2024/02/20 03:57:48;;;;;;;;;;;;;;;3.26;100.00;102295.13;5089547;28;19927;-81
2024/02/20 04:00:14;;;;;;;;;;;;;;;3.22;100.00;102292.78;5090306;28;19920;-81
2024/02/20 04:02:40;;;;;;;;;;;;;;;3.19;100.00;102302.69;5089195;28;19943;-81
2024/02/20 04:05:11;;;;;;;;;;;;;;;3.22;100.00;102298.09;5089802;28;20368;-81
2024/02/20 04:07:36;;;;;;;;;;;;;;;3.18;100.00;102295.66;5090980;28;20426;-81
2024/02/20 04:10:03;;;;;;;;;;;;;;;3.18;100.00;102289.50;5088144;28;19928;-81
2024/02/20 04:12:28;;;;;;;;;;;;;;;3.17;100.00;102293.13;5090337;28;19990;-81
2024/02/20 04:14:53;;;;;;;;;;;;;;;3.13;100.00;102288.97;5087711;28;19920;-81
2024/02/20 04:17:19;;;;;;;;;;;;;;;3.11;100.00;102291.75;5083669;28;19928;-81
2024/02/20 04:19:44;;;;;;;;;;;;;;;3.14;100.00;102288.88;5081032;28;19920;-81
2024/02/20 04:22:09;;;;;;;;;;;;;;;3.21;100.00;102285.75;5086477;28;19984;-81
2024/02/20 04:24:34;;;;;;;;;;;;;;;3.26;100.00;102284.47;5085510;28;20406;-81
2024/02/20 04:26:59;;;;;;;;;;;;;;;3.21;100.00;102285.75;5089185;28;20407;-81
2024/02/20 04:29:25;;;;;;;;;;;;;;;3.24;100.00;102282.88;5090593;28;20409;-81
2024/02/20 04:31:50;;;;;;;;;;;;;;;3.27;100.00;102280.81;5088352;28;20396;-81
2024/02/20 04:34:15;;;;;;;;;;;;;;;3.32;100.00;102291.16;5089217;28;20379;-81
2024/02/20 04:36:40;;;;;;;;;;;;;;;3.28;100.00;102284.34;5090805;28;20379;-81
2024/02/20 04:39:06;;;;;;;;;;;;;;;3.25;100.00;102287.22;5088301;28;20403;-81
2024/02/20 04:41:32;;;;;;;;;;;;;;;3.27;100.00;102296.78;5089760;28;19958;-81
2024/02/20 04:43:57;;;;;;;;;;;;;;;3.21;100.00;102291.06;5089553;28;19971;-81
2024/02/20 04:46:22;;;;;;;;;;;;;;;3.18;100.00;102297.47;5089090;28;20037;-81
2024/02/20 04:48:47;;;;;;;;;;;;;;;3.22;100.00;102296.28;5067101;28;19999;-81
2024/02/20 04:51:13;;;;;;;;;;;;;;;3.17;100.00;102293.13;5087767;28;19946;-81
2024/02/20 04:53:38;;;;;;;;;;;;;;;3.14;100.00;102290.69;5088910;28;20322;-81
2024/02/20 04:56:03;;;;;;;;;;;;;;;3.14;100.00;102294.19;5088945;28;20382;-81
2024/02/20 04:58:29;;;;;;;;;;;;;;;3.24;100.00;102285.53;5088685;28;20264;-80
2024/02/20 05:00:54;;;;;;;;;;;;;;;3.21;100.00;102283.09;5089686;28;19927;-80
2024/02/20 05:03:19;;;;;;;;;;;;;;;3.16;100.00;102283.44;5088393;28;19924;-80
2024/02/20 05:05:45;;;;;;;;;;;;;;;3.09;100.00;102282.19;5088961;28;19926;-79
2024/02/20 05:08:10;;;;;;;;;;;;;;;3.10;100.00;102284.75;5089379;28;19920;-79
2024/02/20 05:10:35;;;;;;;;;;;;;;;3.07;100.00;102290.28;5089475;28;19924;-80
2024/02/20 05:13:00;;;;;;;;;;;;;;;3.16;100.00;102286.09;5088523;28;20025;-79
2024/02/20 05:15:26;;;;;;;;;;;;;;;3.18;100.00;102287.66;5089842;28;20285;-81
2024/02/20 05:17:51;;;;;;;;;;;;;;;3.21;100.00;102280.44;5088790;28;19928;-80
2024/02/20 05:20:16;;;;;;;;;;;;;;;3.26;100.00;102284.47;5088596;28;19920;-80
2024/02/20 05:22:41;;;;;;;;;;;;;;;3.22;100.00;102293.63;5089249;28;19920;-80
2024/02/20 05:25:07;;;;;;;;;;;;;;;3.22;100.00;102282.13;5089646;28;19924;-82
2024/02/20 05:27:32;;;;;;;;;;;;;;;3.19;100.00;102278.72;5090678;28;19919;-82
2024/02/20 05:29:57;;;;;;;;;;;;;;;3.06;100.00;102285.06;5093479;28;19924;-82
2024/02/20 05:32:23;;;;;;;;;;;;;;;3.16;100.00;102275.44;5092022;28;19971;-82
2024/02/20 05:34:48;;;;;;;;;;;;;;;3.13;100.00;102279.19;5092168;28;19959;-82
2024/02/20 05:37:13;;;;;;;;;;;;;;;3.08;100.00;102283.16;5093217;28;19967;-82
2024/02/20 05:39:38;;;;;;;;;;;;;;;3.03;100.00;102284.34;5092611;28;19982;-83
2024/02/20 05:42:04;;;;;;;;;;;;;;;3.16;100.00;102286.97;5091138;28;19920;-83
2024/02/20 05:44:29;;;;;;;;;;;;;;;3.15;100.00;102277.28;5094019;28;19920;-83
2024/02/20 05:46:54;;;;;;;;;;;;;;;3.14;100.00;102280.91;5091888;28;20007;-83
2024/02/20 05:49:19;;;;;;;;;;;;;;;3.16;100.00;102273.66;5091612;28;19920;-83
2024/02/20 05:51:47;;;;;;;;;;;;;;;3.18;100.00;102276.19;5093205;28;19943;-82
2024/02/20 05:54:12;;;;;;;;;;;;;;;3.15;100.00;102277.28;5092402;28;19987;-82
2024/02/20 05:56:38;;;;;;;;;;;;;;;3.26;100.00;102278.28;5091195;28;19924;-79
2024/02/20 05:59:03;;;;;;;;;;;;;;;3.17;100.00;102279.81;5093876;28;19924;-80
2024/02/20 06:01:28;;;;;;;;;;;;;;;3.35;100.00;102288.25;5090742;28;19928;-80
2024/02/20 06:03:53;;;;;;;;;;;;;;;3.37;100.00;102286.31;5091890;28;19920;-80
2024/02/20 06:06:19;;;;;;;;;;;;;;;3.36;100.00;102289.94;5093300;28;19978;-80
2024/02/20 06:08:44;;;;;;;;;;;;;;;3.41;100.00;102285.13;5086772;28;19920;-82
2024/02/20 06:11:17;;;;;;;;;;;;;;;3.44;100.00;102281.41;5092743;28;19935;-82
2024/02/20 06:13:43;;;;;;;;;;;;;;;3.47;100.00;102292.66;5093415;28;19969;-80
2024/02/20 06:16:08;;;;;;;;;;;;;;;3.51;100.00;102295.09;5090715;28;19920;-82
2024/02/20 06:18:33;;;;;;;;;;;;;;;3.57;100.00;102290.16;5092592;28;19920;-82
2024/02/20 06:20:58;;;;;;;;;;;;;;;3.59;100.00;102290.91;5092075;28;20441;-82
2024/02/20 06:23:24;;;;;;;;;;;;;;;3.54;100.00;102293.06;5090922;28;19951;-82
2024/02/20 06:25:49;;;;;;;;;;;;;;;3.46;100.00;102290.09;5091426;28;19970;-82
2024/02/20 06:28:16;;;;;;;;;;;;;;;3.62;100.00;102287.16;5093166;28;19927;-82
2024/02/20 06:30:42;;;;;;;;;;;;;;;3.65;100.00;102289.59;5090046;28;19920;-82
2024/02/20 06:33:07;;;;;;;;;;;;;;;3.67;100.00;102292.13;5092139;28;20461;-82
2024/02/20 06:35:32;;;;;;;;;;;;;;;3.73;100.00;102292.50;5091723;28;20018;-82
2024/02/20 06:37:58;;;;;;;;;;;;;;;3.65;100.00;102305.56;5091770;28;19920;-80
2024/02/20 06:40:23;;;;;;;;;;;;;;;3.65;100.00;102294.91;5086306;28;19923;-83
2024/02/20 06:42:48;;;;;;;;;;;;;;;3.76;100.00;102284.28;5092659;28;19920;-81
2024/02/20 06:45:14;;;;;;;;;;;;;;;3.81;100.00;102288.41;5091168;28;20363;-81
2024/02/20 06:47:41;;;;;;;;;;;;;;;3.74;100.00;102290.72;5091366;28;19928;-81
2024/02/20 06:50:08;;;;;;;;;;;;;;;3.77;100.00;102288.66;5091120;28;19924;-81
2024/02/20 06:52:38;;;;;;;;;;;;;;;3.78;100.00;102285.03;5090809;28;19923;-80
2024/02/20 06:55:05;;;;;;;;;;;;;;;3.78;100.00;102295.69;5091449;28;19967;-81
2024/02/20 06:57:30;;;;;;;;;;;;;;;3.84;100.00;102289.03;5091827;28;20199;-81
2024/02/20 06:59:56;;;;;;;;;;;;;;;3.87;100.00;102287.97;5090717;28;20316;-81
2024/02/20 07:02:21;;;;;;;;;;;;;;;3.90;100.00;102293.03;5091462;28;20415;-81
2024/02/20 07:04:48;;;;;;;;;;;;;;;3.91;100.00;102294.72;5090986;28;20364;-80
2024/02/20 07:07:14;;;;;;;;;;;;;;;3.91;100.00;102295.59;5085986;28;20647;-80
2024/02/20 07:09:39;;;;;;;;;;;;;;;3.97;100.00;102288.94;5087634;28;19938;-80
2024/02/20 07:12:06;;;;;;;;;;;;;;;4.02;100.00;102291.25;5084552;28;19916;-80
2024/02/20 07:14:32;;;;;;;;;;;;;;;4.02;100.00;102292.13;5090994;28;20284;-81
2024/02/20 07:16:58;;;;;;;;;;;;;;;3.93;100.00;102300.78;5090696;28;19924;-81
2024/02/20 07:19:26;;;;;;;;;;;;;;;4.05;100.00;102304.34;5090923;28;19916;-80
2024/02/20 07:21:52;;;;;;;;;;;;;;;4.02;100.00;102308.09;5091553;28;20364;-81
2024/02/20 07:24:18;;;;;;;;;;;;;;;4.08;100.00;102310.28;5089188;28;19938;-80
2024/02/20 07:26:45;;;;;;;;;;;;;;;4.15;100.00;102312.47;5088393;28;20015;-81
2024/02/20 07:29:10;;;;;;;;;;;;;;;4.08;100.00;102310.28;5089031;28;19927;-80
2024/02/20 07:31:36;;;;;;;;;;;;;;;4.22;100.00;102314.56;5091456;28;19920;-80
2024/02/20 07:34:01;;;;;;;;;;;;;;;4.33;100.00;102315.53;5088729;28;20308;-81
2024/02/20 07:36:26;;;;;;;;;;;;;;;4.39;100.00;102315.91;5091434;28;19928;-81
2024/02/20 07:38:51;;;;;;;;;;;;;;;4.40;100.00;102319.41;5089771;28;19947;-81
2024/02/20 07:41:16;;;;;;;;;;;;;;;4.42;100.00;102319.28;5090342;28;19920;-81
2024/02/20 07:43:42;;;;;;;;;;;;;;;4.60;100.00;102319.69;5090949;28;19920;-82
2024/02/20 07:46:07;;;;;;;;;;;;;;;4.59;100.00;102318.81;5084961;28;19927;-81
2024/02/20 07:48:32;;;;;;;;;;;;;;;4.42;100.00;102321.97;5088617;28;19966;-81
2024/02/20 07:50:58;;;;;;;;;;;;;;;4.53;100.00;102327.31;5090977;28;19927;-81
2024/02/20 07:53:23;;;;;;;;;;;;;;;4.53;100.00;102321.97;5093450;28;19920;-81
2024/02/20 07:55:48;;;;;;;;;;;;;;;4.69;100.00;102317.13;5093601;28;20329;-81
2024/02/20 07:58:13;;;;;;;;;;;;;;;4.81;100.00;102319.78;5091124;28;20401;-81
2024/02/20 08:00:39;;;;;;;;;;;;;;;4.68;100.00;102320.75;5090397;28;19924;-81
2024/02/20 08:03:04;;;;;;;;;;;;;;;4.50;100.00;102327.56;5088966;28;20371;-81
2024/02/20 08:05:29;;;;;;;;;;;;;;;4.57;100.00;102326.13;5090701;28;20424;-82
2024/02/20 08:07:54;;;;;;;;;;;;;;;4.64;100.00;102313.97;5089511;28;19920;-81
2024/02/20 08:10:20;;;;;;;;;;;;;;;4.91;100.00;102315.44;5089154;28;19923;-81
2024/02/20 08:12:45;;;;;;;;;;;;;;;5.01;100.00;102316.38;5090840;28;19920;-81
2024/02/20 08:15:10;;;;;;;;;;;;;;;4.86;100.00;102317.59;5088374;28;20334;-82
2024/02/20 08:17:36;;;;;;;;;;;;;;;5.05;100.00;102326.81;5090042;28;20316;-81
2024/02/20 08:20:04;;;;;;;;;;;;;;;5.10;100.00;102333.47;5090306;28;19920;-81
2024/02/20 08:22:29;;;;;;;;;;;;;;;5.19;100.00;102329.19;5082925;28;19924;-81
2024/02/20 08:24:54;;;;;;;;;;;;;;;5.37;100.00;102332.19;5089395;28;19920;-81
2024/02/20 08:27:22;;;;;;;;;;;;;;;5.59;100.00;102331.25;5089983;28;19920;-81
2024/02/20 08:29:48;;;;;;;;;;;;;;;5.58;100.00;102345.59;5083528;28;20356;-82
2024/02/20 08:32:14;;;;;;;;;;;;;;;5.68;100.00;102334.13;5088962;28;19973;-81
2024/02/20 08:34:39;;;;;;;;;;;;;;;5.75;100.00;102338.84;5090566;28;19920;-82
2024/02/20 08:37:04;;;;;;;;;;;;;;;5.64;100.00;102333.53;5088916;28;19986;-81
2024/02/20 08:39:29;;;;;;;;;;;;;;;5.74;100.00;102329.13;5089669;28;19963;-82
2024/02/20 08:41:54;;;;;;;;;;;;;;;5.82;100.00;102331.19;5089548;28;20389;-82
2024/02/20 08:44:20;;;;;;;;;;;;;;;5.89;100.00;102332.34;5089319;28;19927;-82
2024/02/20 08:46:45;;;;;;;;;;;;;;;5.86;100.00;102331.75;5089553;28;19943;-81
2024/02/20 08:49:10;;;;;;;;;;;;;;;5.85;100.00;102336.25;5090619;28;19927;-82
2024/02/20 08:51:42;;;;;;;;;;;;;;;5.88;100.00;102329.81;5088724;28;19928;-81
2024/02/20 08:54:07;;;;;;;;;;;;;;;5.79;100.00;102335.91;5089740;28;19977;-82
2024/02/20 08:56:32;;;;;;;;;;;;;;;5.89;100.00;102332.34;5089434;28;19920;-82
2024/02/20 08:58:58;;;;;;;;;;;;;;;6.00;100.00;102328.78;5089543;28;19920;-81
2024/02/20 09:01:24;;;;;;;;;;;;;;;6.09;100.00;102332.50;5089907;28;19954;-81
2024/02/20 09:03:50;;;;;;;;;;;;;;;6.02;100.00;102334.84;5094342;28;19920;-82
2024/02/20 09:06:16;;;;;;;;;;;;;;;6.11;100.00;102333.22;5093303;28;19917;-82
2024/02/20 09:08:41;;;;;;;;;;;;;;;5.90;100.00;102333.19;5093299;28;19920;-82
2024/02/20 09:11:07;;;;;;;;;;;;;;;6.09;100.00;102324.50;5094379;28;19966;-81
2024/02/20 09:13:34;;;;;;;;;;;;;;;6.06;100.00;102330.09;5092906;28;19916;-82
2024/02/20 09:15:59;;;;;;;;;;;;;;;6.18;100.00;102313.00;5093696;28;20309;-82
2024/02/20 09:18:24;;;;;;;;;;;;;;;6.34;100.00;102314.38;5091561;28;20007;-82
2024/02/20 09:20:50;;;;;;;;;;;;;;;6.41;100.00;102312.00;5093753;28;19951;-82
2024/02/20 09:23:15;;;;;;;;;;;;;;;6.27;100.00;102311.34;5092523;28;19966;-81
2024/02/20 09:25:43;;;;;;;;;;;;;;;6.45;100.00;102316.94;5092480;28;19920;-82
2024/02/20 09:28:08;;;;;;;;;;;;;;;6.39;100.00;102322.00;5092932;28;19954;-82
2024/02/20 09:30:34;;;;;;;;;;;;;;;6.51;100.00;102315.56;5092075;28;19924;-81
2024/02/20 09:32:59;;;;;;;;;;;;;;;6.53;100.00;102314.44;5092504;28;19920;-81
2024/02/20 09:35:25;;;;;;;;;;;;;;;6.57;100.00;102320.38;5092945;28;19928;-81
2024/02/20 09:37:50;;;;;;;;;;;;;;;6.64;100.00;102308.16;5092418;28;19920;-82
2024/02/20 09:40:16;;;;;;;;;;;;;;;6.69;100.00;102310.44;5091950;28;19920;-82
2024/02/20 09:42:41;;;;;;;;;;;;;;;6.74;100.00;102308.19;5075727;28;20027;-81
2024/02/20 09:45:07;;;;;;;;;;;;;;;6.65;100.00;102309.84;5073655;28;20026;-82
2024/02/20 09:47:33;;;;;;;;;;;;;;;6.73;100.00;102303.81;5092310;28;19997;-82
2024/02/20 09:49:58;;;;;;;;;;;;;;;6.75;100.00;102309.88;5092522;28;20332;-80
2024/02/20 09:52:24;;;;;;;;;;;;;;;6.59;100.00;102310.41;5092796;28;19927;-80
2024/02/20 09:54:49;;;;;;;;;;;;;;;6.59;100.00;102314.88;5073074;28;20283;-81
2024/02/20 09:57:17;;;;;;;;;;;;;;;6.85;100.00;102319.78;5093253;28;20288;-81
2024/02/20 09:59:43;;;;;;;;;;;;;;;6.76;100.00;102318.78;5091707;28;19977;-81
2024/02/20 10:02:09;;;;;;;;;;;;;;;6.85;100.00;102322.47;5091877;28;19920;-81
2024/02/20 10:04:35;;;;;;;;;;;;;;;6.49;100.00;102318.38;5075647;28;20376;-81
2024/02/20 10:07:03;;;;;;;;;;;;;;;6.68;100.00;102306.06;5092548;28;19966;-80
2024/02/20 10:09:29;;;;;;;;;;;;;;;6.83;100.00;102311.88;5092231;28;19927;-81
2024/02/20 10:11:54;;;;;;;;;;;;;;;6.80;100.00;102310.34;5075787;28;20324;-81
2024/02/20 10:14:28;;;;;;;;;;;;;;;6.98;100.00;102298.97;5092945;28;19927;-81
2024/02/20 10:16:57;;;;;;;;;;;;;;;7.01;100.00;102303.19;5092535;28;19963;-81
2024/02/20 10:19:25;;;;;;;;;;;;;;;7.00;100.00;102297.00;5093713;28;19943;-82
2024/02/20 10:21:50;;;;;;;;;;;;;;;7.03;100.00;102296.72;5091959;28;20411;-81
2024/02/20 10:24:16;;;;;;;;;;;;;;;7.02;100.00;102300.41;5092839;28;19930;-80
2024/02/20 10:26:42;;;;;;;;;;;;;;;7.07;100.00;102300.81;5093790;28;20312;-81
2024/02/20 10:29:07;;;;;;;;;;;;;;;7.03;100.00;102298.53;5073763;28;19975;-81
2024/02/20 10:31:32;;;;;;;;;;;;;;;7.08;100.00;102301.66;5092893;28;19959;-81
2024/02/20 10:33:58;;;;;;;;;;;;;;;7.12;100.00;102287.03;5093316;28;19920;-81
2024/02/20 10:36:24;;;;;;;;;;;;;;;7.37;100.00;102296.34;5091430;28;19930;-81
2024/02/20 10:38:51;;;;;;;;;;;;;;;7.53;100.00;102289.59;5091476;28;21546;-82
2024/02/20 10:41:18;;;;;;;;;;;;;;;7.58;100.00;102284.66;5093098;28;19924;-81
2024/02/20 10:43:45;;;;;;;;;;;;;;;7.58;100.00;102268.56;5084223;28;20035;-81
2024/02/20 10:46:11;;;;;;;;;;;;;;;7.89;100.00;102279.94;5092775;28;19920;-81
2024/02/20 10:48:36;;;;;;;;;;;;;;;7.86;100.00;102274.88;5074996;28;19955;-81
2024/02/20 10:51:02;;;;;;;;;;;;;;;7.92;100.00;102277.97;5073803;28;19982;-82
2024/02/20 10:53:27;;;;;;;;;;;;;;;8.01;100.00;102277.97;5089568;28;19963;-82
2024/02/20 10:55:52;;;;;;;;;;;;;;;7.86;100.00;102268.69;5092872;28;19928;-81
2024/02/20 10:58:18;;;;;;;;;;;;;;;7.76;100.00;102284.78;5073607;28;19927;-81
2024/02/20 11:00:46;;;;;;;;;;;;;;;7.90;100.00;102286.16;5073342;28;19928;-82
2024/02/20 11:03:12;;;;;;;;;;;;;;;8.14;100.00;102276.78;5092611;28;19920;-81
2024/02/20 11:05:37;;;;;;;;;;;;;;;8.24;100.00;102277.63;5073087;28;19954;-82
2024/02/20 11:08:06;;;;;;;;;;;;;;;8.35;100.00;102280.09;5073297;28;19920;-83
2024/02/20 11:10:33;;;;;;;;;;;;;;;8.36;100.00;102275.59;5091241;28;19927;-81
2024/02/20 11:12:58;;;;;;;;;;;;;;;8.55;100.00;102268.50;5090663;28;20365;-81
2024/02/20 11:15:26;;;;;;;;;;;;;;;8.39;100.00;102275.28;5073289;28;19927;-81
2024/02/20 11:17:51;;;;;;;;;;;;;;;8.23;100.00;102275.94;5090718;28;20012;-81
2024/02/20 11:20:17;;;;;;;;;;;;;;;8.72;100.00;102269.53;5092498;28;20386;-82
2024/02/20 11:22:45;;;;;;;;;;;;;;;8.63;100.00;102264.06;5091196;28;19924;-81
2024/02/20 11:25:15;;;;;;;;;;;;;;;8.69;100.00;102270.69;5090424;28;19923;-81
2024/02/20 11:27:41;;;;;;;;;;;;;;;8.89;100.00;102260.66;5091706;28;20303;-81
2024/02/20 11:30:22;;;;;;;;;;;;;;;8.89;100.00;102262.53;5091522;28;19995;-81
2024/02/20 11:32:48;;;;;;;;;;;;;;;8.99;100.00;102257.91;5090911;28;20014;-82
2024/02/20 11:35:32;;;;;;;;;;;;;;;8.54;100.00;102254.22;5091626;28;20470;-81
2024/02/20 11:37:58;;;;;;;;;;;;;;;8.78;100.00;102256.34;5091066;28;19931;-82
2024/02/20 11:40:30;;;;;;;;;;;;;;;8.59;100.00;102254.63;5090780;28;19916;-81
2024/02/20 11:43:06;;;;;;;;;;;;;;;8.78;100.00;102259.03;5090736;28;19934;-82
2024/02/20 11:45:33;;;;;;;;;;;;;;;8.44;100.00;102246.19;5091313;28;20410;-82
2024/02/20 11:47:58;;;;;;;;;;;;;;;8.30;100.00;102235.94;5090826;28;19923;-81
2024/02/20 11:50:28;;;;;;;;;;;;;;;8.62;100.00;102224.81;5090874;28;19943;-81
2024/02/20 11:52:57;;;;;;;;;;;;;;;8.43;100.00;102219.50;5089488;28;20034;-81
2024/02/20 11:55:22;;;;;;;;;;;;;;;8.46;100.00;102233.47;5091447;28;19920;-80
2024/02/20 11:57:47;;;;;;;;;;;;;;;8.51;100.00;102230.34;5091397;28;20378;-81
2024/02/20 12:00:14;;;;;;;;;;;;;;;8.62;100.00;102227.50;5069146;28;19974;-82
2024/02/20 12:02:39;;;;;;;;;;;;;;;8.30;100.00;102227.88;5071300;28;19921;-81
2024/02/20 12:05:08;;;;;;;;;;;;;;;8.34;100.00;102227.44;5081535;28;20015;-80
2024/02/20 12:07:33;;;;;;;;;;;;;;;8.67;100.00;102220.81;5089012;28;20376;-82
2024/02/20 12:09:59;;;;;;;;;;;;;;;8.77;100.00;102218.91;5071702;28;19962;-82
2024/02/20 12:12:27;;;;;;;;;;;;;;;8.47;100.00;102218.22;5071238;28;19920;-81
2024/02/20 12:14:58;;;;;;;;;;;;;;;8.73;100.00;102220.22;5069844;28;19921;-81
2024/02/20 12:17:27;;;;;;;;;;;;;;;8.83;100.00;102212.09;5071518;28;19927;-81
2024/02/20 12:20:13;;;;;;;;;;;;;;;8.85;100.00;102218.16;5063033;28;20022;-81
2024/02/20 12:22:41;;;;;;;;;;;;;;;8.84;100.00;102214.63;5069072;28;20378;-81
2024/02/20 12:25:08;;;;;;;;;;;;;;;9.05;100.00;102208.97;5071082;28;19921;-81
2024/02/20 12:27:33;;;;;;;;;;;;;;;9.58;100.00;102194.78;5071439;28;19921;-81
2024/02/20 12:29:58;;;;;;;;;;;;;;;10.72;93.33;102196.38;5069591;28;19925;-81
2024/02/20 12:32:24;;;;;;;;;;;;;;;11.17;87.94;102194.25;5070931;28;19959;-82